Observations for LONDON HEATHROW, United Kingdom (EGLL)

EGLL 140820Z AUTO 27007KT 9999 OVC039 17/13 Q1016 NOSIG 
EGLL 140750Z AUTO 30006KT 9999 OVC043 17/13 Q1016 NOSIG 
EGLL 140720Z AUTO 27005KT 9999 OVC044 16/13 Q1016 NOSIG 
EGLL 140650Z AUTO 26009KT 9999 OVC044 15/13 Q1016 NOSIG 
EGLL 140620Z AUTO 29005KT 9999 OVC044 15/13 Q1016 NOSIG 
EGLL 140550Z AUTO 27007KT 9999 OVC044 14/13 Q1016 NOSIG 
EGLL 140520Z AUTO 26005KT 9999 BKN046 14/13 Q1015 NOSIG 
EGLL 140450Z AUTO 27006KT 9999 NCD 13/12 Q1015 NOSIG
EGLL 140420Z AUTO 27006KT 9999 NCD 13/12 Q1015 NOSIG
EGLL 140350Z AUTO 27006KT 9999 NCD 14/13 Q1014 NOSIG
EGLL 140320Z AUTO 29005KT 9999 NCD 15/13 Q1014 NOSIG
EGLL 140250Z AUTO 29004KT 9999 NCD 14/12 Q1014 NOSIG
EGLL 140220Z AUTO VRB03KT 9999 NCD 15/13 Q1014 NOSIG
EGLL 140150Z AUTO VRB03KT 9999 NCD 16/13 Q1013 NOSIG
EGLL 140120Z AUTO 29004KT 9999 NCD 16/13 Q1013 NOSIG
EGLL 140050Z AUTO 30004KT 9999 NCD 16/13 Q1013 NOSIG
EGLL 140020Z AUTO 29004KT 9999 NCD 16/13 Q1013 NOSIG
EGLL 132350Z AUTO 30003KT 9999 NCD 17/13 Q1013 NOSIG
EGLL 132320Z AUTO 29005KT 9999 NCD 17/13 Q1012 NOSIG
EGLL 132250Z AUTO 29004KT 9999 NCD 18/13 Q1012 NOSIG
EGLL 132220Z AUTO 31004KT 9999 NCD 18/13 Q1012 NOSIG
EGLL 132150Z AUTO 31005KT 9999 NCD 19/13 Q1011 NOSIG
EGLL 132120Z AUTO 30006KT 9999 NCD 19/14 Q1011 NOSIG
EGLL 132050Z AUTO 31006KT 270V340 9999 NCD 20/14 Q1011 NOSIG
EGLL 132020Z AUTO 31006KT 280V350 9999 FEW039 21/15 Q1010 NOSIG 
EGLL 131950Z AUTO 31007KT 9999 NCD 22/14 Q1010 NOSIG
EGLL 131920Z AUTO 32007KT 9999 NCD 22/14 Q1009 NOSIG
EGLL 131850Z AUTO 30007KT 9999 FEW047 23/13 Q1009 NOSIG 
EGLL 131820Z AUTO 30007KT 9999 NCD 23/13 Q1008 NOSIG
EGLL 131750Z AUTO 32007KT 290V010 9999 BKN048 24/12 Q1008 NOSIG 
EGLL 131720Z AUTO 29008KT 260V320 9999 NCD 24/12 Q1008 NOSIG
EGLL 131650Z AUTO 30010KT 9999 NCD 23/12 Q1008 NOSIG
EGLL 131620Z AUTO 30009KT 9999 NCD 24/12 Q1008 NOSIG
EGLL 131550Z AUTO 29010KT 240V330 9999 FEW047 25/12 Q1007 NOSIG 
EGLL 131520Z AUTO 30007KT 260V340 9999 FEW046 24/12 Q1007 NOSIG 
EGLL 131450Z AUTO 32007KT 280V350 9999 SCT044 23/13 Q1007 NOSIG 
EGLL 131420Z AUTO 30009KT 9999 FEW042 23/13 Q1007 NOSIG 
EGLL 131350Z AUTO 29010KT 250V320 9999 FEW041 24/13 Q1007 NOSIG 
EGLL 131320Z AUTO 28012KT 250V330 9999 FEW041 24/13 Q1007 NOSIG 
EGLL 131250Z AUTO 27016KT 9999 FEW039/// //////CB 22/13 Q1007 NOSIG 
EGLL 131220Z AUTO 29009KT 260V350 9999 SCT035/// BKN041/// //////TCU 23/13 Q1007 TEMPO SHRA 
EGLL 131150Z AUTO 29007KT 250V340 9999 FEW025/// SCT029/// //////CB 23/15 Q1007 TEMPO 8000 SHRA 
EGLL 131120Z 29007KT 9999 SCT022TCU BKN035 20/15 Q1007 TEMPO 8000 SHRA  
EGLL 131050Z AUTO 31006KT 290V360 9999 FEW019 SCT047 20/16 Q1007 NOSIG  
EGLL 131020Z AUTO 30010KT 270V330 9999 SCT018 BKN024 BKN032 19/15 Q1007 NOSIG   
EGLL 130950Z AUTO 30008KT 9999 SCT016 BKN026 20/15 Q1007 NOSIG  
EGLL 130920Z AUTO 29008KT 260V320 9999 SCT012 BKN016 BKN021 19/15 Q1006 NOSIG   
EGLL 130850Z AUTO 29008KT 260V320 9999 BKN009 OVC020 18/16 Q1006 TEMPO SCT009   
EGLL 130820Z AUTO 29007KT 9999 BKN008 17/16 Q1006 TEMPO SCT008  
EGLL 130750Z 27009KT 9000 -RA SCT007 BKN025 17/16 Q1006 TEMPO BKN007